Time;durP1;ratioP1;P1;durP2;ratioP2;P2;SDS_P1;SDS_P2;PMS_P1;PMS_P2;Temp;Humidity;BMP_temperature;BMP_pressure;BME280_temperature;BME280_humidity;BME280_pressure;Samples;Min_cycle;Max_cycle;Signal;HPM_P1;HPM_P2
2022/08/23 00:00:33;;;;;;;27.95;12.20;;;22.30;99.90;;;;;;5075211;28;20056;-71
2022/08/23 00:03:00;;;;;;;30.58;13.52;;;22.50;99.90;;;;;;5057058;28;20115;-72
2022/08/23 00:05:26;;;;;;;25.02;13.23;;;22.50;99.90;;;;;;5074542;28;20089;-72
2022/08/23 00:07:52;;;;;;;20.90;11.10;;;22.50;99.90;;;;;;5074860;28;20032;-72
2022/08/23 00:10:18;;;;;;;27.23;12.45;;;22.20;99.90;;;;;;5074856;28;20162;-72
2022/08/23 00:12:45;;;;;;;25.30;11.85;;;22.10;99.90;;;;;;5074768;28;20025;-72
2022/08/23 00:15:15;;;;;;;25.60;10.77;;;22.00;99.90;;;;;;5074497;28;20046;-72
2022/08/23 00:17:41;;;;;;;25.83;11.88;;;21.80;99.90;;;;;;5074476;28;20041;-72
2022/08/23 00:20:10;;;;;;;26.60;12.18;;;21.60;99.90;;;;;;5074423;28;20028;-72
2022/08/23 00:22:37;;;;;;;25.52;12.02;;;21.60;99.90;;;;;;5056553;28;20469;-73
2022/08/23 00:25:06;;;;;;;26.42;11.98;;;21.70;99.90;;;;;;5074386;28;20420;-72
2022/08/23 00:27:33;;;;;;;24.00;11.77;;;21.70;99.90;;;;;;5060532;28;20473;-73
2022/08/23 00:29:59;;;;;;;20.45;10.82;;;21.60;99.90;;;;;;5074440;28;20021;-72
2022/08/23 00:32:30;;;;;;;28.30;12.25;;;21.30;99.90;;;;;;5074171;28;20028;-72
2022/08/23 00:34:57;;;;;;;;;;;20.80;99.90;;;;;;5074866;28;20028;-72
2022/08/23 00:37:24;;;;;;;25.67;11.80;;;20.30;99.90;;;;;;5074164;28;19916;-72
2022/08/23 00:39:50;;;;;;;26.33;12.68;;;20.70;99.90;;;;;;5060570;28;20119;-72
2022/08/23 00:48:12;;;;;;;22.33;12.95;;;21.20;99.90;;;;;;5071298;28;20495;-73
2022/08/23 00:51:01;;;;;;;27.33;12.07;;;21.10;99.90;;;;;;5073788;28;20384;-72
2022/08/23 00:53:34;;;;;;;26.92;12.70;;;21.50;99.90;;;;;;5060350;28;20036;-72
2022/08/23 00:56:05;;;;;;;31.02;13.38;;;21.70;99.90;;;;;;5073747;28;20021;-72
2022/08/23 00:58:31;;;;;;;25.05;11.88;;;21.80;99.90;;;;;;5073950;28;20068;-72
2022/08/23 01:00:59;;;;;;;31.65;12.70;;;21.70;99.90;;;;;;5075390;28;20021;-72
2022/08/23 01:03:28;;;;;;;20.42;11.75;;;21.80;99.90;;;;;;5076406;28;20044;-72
2022/08/23 01:06:14;;;;;;;22.38;12.02;;;21.90;99.90;;;;;;5076608;28;20017;-72
2022/08/23 01:08:45;;;;;;;24.23;11.90;;;22.10;99.90;;;;;;5058931;28;20025;-71
2022/08/23 01:11:34;;;;;;;22.05;11.07;;;21.80;99.90;;;;;;5076502;28;20393;-72
2022/08/23 01:14:08;;;;;;;27.08;11.50;;;21.80;99.90;;;;;;5048145;28;20040;-72
2022/08/23 01:16:49;;;;;;;23.23;12.18;;;21.80;99.90;;;;;;5076372;28;20047;-72
2022/08/23 01:19:29;;;;;;;30.88;11.45;;;21.70;99.90;;;;;;5076561;28;20037;-71
2022/08/23 01:22:14;;;;;;;30.70;12.50;;;21.70;99.90;;;;;;5077331;28;20064;-72
2022/08/23 01:24:42;;;;;;;22.63;11.73;;;21.90;99.90;;;;;;5076061;28;20028;-71
2022/08/23 01:27:11;;;;;;;19.08;12.00;;;21.50;99.90;;;;;;5076050;28;20032;-71
2022/08/23 01:29:39;;;;;;;22.67;12.48;;;21.50;99.90;;;;;;5040679;28;20041;-71
2022/08/23 01:32:07;;;;;;;18.35;11.10;;;21.70;99.90;;;;;;5075803;28;20461;-71
2022/08/23 01:34:35;;;;;;;22.50;11.23;;;21.70;99.90;;;;;;5057637;28;20032;-72
2022/08/23 01:37:06;;;;;;;25.17;12.65;;;21.40;99.90;;;;;;5057868;28;20050;-72
2022/08/23 01:39:33;;;;;;;22.90;13.95;;;20.80;99.90;;;;;;5058310;28;20401;-72
2022/08/23 01:42:00;;;;;;;22.23;13.32;;;20.70;99.90;;;;;;5057868;28;20022;-72
2022/08/23 01:44:26;;;;;;;21.75;13.40;;;20.60;99.90;;;;;;5076302;28;20033;-72
2022/08/23 01:46:52;;;;;;;23.08;14.23;;;20.90;99.90;;;;;;5057493;28;20380;-72
2022/08/23 01:49:19;;;;;;;25.33;14.38;;;20.60;99.90;;;;;;5076487;28;20098;-71
2022/08/23 01:51:45;;;;;;;23.55;13.77;;;20.50;99.90;;;;;;5058994;28;20032;-71
2022/08/23 01:54:12;;;;;;;25.45;13.57;;;20.10;99.90;;;;;;5057930;28;20074;-74
2022/08/23 01:56:39;;;;;;;27.27;14.82;;;20.30;99.90;;;;;;5057639;28;20049;-73
2022/08/23 01:59:11;;;;;;;24.13;14.68;;;20.60;99.90;;;;;;5056765;28;20019;-71
2022/08/23 02:01:43;;;;;;;29.80;14.70;;;20.70;99.90;;;;;;5056151;28;20024;-73
2022/08/23 02:04:08;;;;;;;24.70;15.18;;;20.90;99.90;;;;;;5056055;28;20399;-72
2022/08/23 02:06:34;;;;;;;21.15;15.18;;;20.90;99.90;;;;;;5056120;28;20050;-73
2022/08/23 02:09:04;;;;;;;28.98;15.88;;;20.90;99.90;;;;;;5055084;28;20033;-71
2022/08/23 02:11:41;;;;;;;27.38;15.25;;;21.10;99.90;;;;;;5054809;28;20384;-72
2022/08/23 02:14:10;;;;;;;26.80;15.57;;;21.10;99.90;;;;;;5072921;28;20376;-72
2022/08/23 02:16:50;;;;;;;25.48;15.23;;;20.40;99.90;;;;;;5054258;28;20435;-73
2022/08/23 02:19:18;;;;;;;21.50;14.70;;;20.20;99.90;;;;;;5057147;28;20056;-72
2022/08/23 02:21:45;;;;;;;24.85;15.45;;;20.70;99.90;;;;;;5077043;28;20094;-72
2022/08/23 02:24:16;;;;;;;28.95;16.20;;;20.70;99.90;;;;;;5058867;28;20481;-73
2022/08/23 02:26:49;;;;;;;28.42;17.17;;;20.90;99.90;;;;;;5058676;28;20033;-72
2022/08/23 02:29:17;;;;;;;27.25;15.20;;;21.20;99.90;;;;;;5058624;28;20035;-72
2022/08/23 02:31:44;;;;;;;24.90;15.93;;;21.10;99.90;;;;;;5058633;28;20358;-73
2022/08/23 02:34:12;;;;;;;34.67;18.48;;;21.20;99.90;;;;;;5076719;28;20024;-72
2022/08/23 02:36:38;;;;;;;27.25;17.25;;;20.70;99.90;;;;;;5058357;28;20029;-71
2022/08/23 02:39:05;;;;;;;29.58;18.35;;;20.50;99.90;;;;;;5077040;28;20037;-72
2022/08/23 02:41:33;;;;;;;26.55;18.08;;;20.70;99.90;;;;;;5058395;28;20447;-72
2022/08/23 02:43:59;;;;;;;27.58;19.60;;;21.00;99.90;;;;;;5058454;28;20020;-72
2022/08/23 02:46:26;;;;;;;31.58;20.85;;;21.00;99.90;;;;;;5058115;28;20027;-72
2022/08/23 02:48:52;;;;;;;30.08;18.05;;;20.70;99.90;;;;;;5058678;28;20108;-72
2022/08/23 02:51:18;;;;;;;31.55;18.63;;;20.70;99.90;;;;;;5058296;28;20473;-72
2022/08/23 02:53:44;;;;;;;30.73;19.42;;;20.20;99.90;;;;;;5058357;28;20561;-71
2022/08/23 02:56:11;;;;;;;32.00;20.80;;;20.00;99.90;;;;;;5058205;28;20465;-73
2022/08/23 02:58:38;;;;;;;42.22;21.95;;;20.30;99.90;;;;;;5058282;28;20037;-72
2022/08/23 03:01:05;;;;;;;35.47;22.30;;;20.60;99.90;;;;;;5058220;28;20384;-72
2022/08/23 03:03:31;;;;;;;32.45;22.60;;;20.70;99.90;;;;;;5058217;28;20029;-72
2022/08/23 03:05:57;;;;;;;35.80;21.50;;;21.00;99.90;;;;;;5057858;28;20039;-72
2022/08/23 03:08:23;;;;;;;35.92;21.30;;;21.00;99.90;;;;;;5076005;28;20028;-72
2022/08/23 03:10:51;;;;;;;35.72;21.65;;;21.00;99.90;;;;;;5041300;28;20032;-73
2022/08/23 03:13:19;;;;;;;28.45;20.25;;;20.90;99.90;;;;;;5057737;28;20480;-72
2022/08/23 03:15:47;;;;;;;31.60;19.52;;;20.80;99.90;;;;;;5057870;28;20044;-72
2022/08/23 03:18:13;;;;;;;32.85;21.58;;;20.40;99.90;;;;;;5057650;28;20128;-72
2022/08/23 03:20:40;;;;;;;33.53;22.02;;;19.90;99.90;;;;;;5075768;28;20553;-72
2022/08/23 03:23:09;;;;;;;32.70;22.92;;;19.90;99.90;;;;;;5057816;28;20457;-73
2022/08/23 03:25:35;;;;;;;37.97;23.73;;;20.20;99.90;;;;;;5057564;28;20399;-72
2022/08/23 03:28:08;;;;;;;35.80;21.50;;;20.60;99.90;;;;;;5057254;28;20075;-72
2022/08/23 03:30:39;;;;;;;42.10;22.95;;;20.50;99.90;;;;;;5057419;28;20033;-72
2022/08/23 03:33:06;;;;;;;45.50;22.45;;;20.50;99.90;;;;;;5057350;28;20024;-72
2022/08/23 03:35:32;;;;;;;30.00;21.92;;;20.30;99.90;;;;;;5075529;28;20487;-72
2022/08/23 03:37:58;;;;;;;27.77;21.00;;;20.20;99.90;;;;;;5057359;28;20044;-71
2022/08/23 03:40:24;;;;;;;29.73;21.38;;;20.20;99.90;;;;;;5057736;28;20473;-73
2022/08/23 03:42:50;;;;;;;31.05;22.05;;;20.40;99.90;;;;;;5056905;28;20017;-72
2022/08/23 03:45:19;;;;;;;35.22;20.80;;;20.40;99.90;;;;;;5057413;28;20067;-71
2022/08/23 03:47:45;;;;;;;33.38;20.45;;;20.00;99.90;;;;;;5057015;28;20040;-72
2022/08/23 03:50:11;;;;;;;32.28;20.55;;;20.30;99.90;;;;;;5057507;28;20062;-72
2022/08/23 03:52:39;;;;;;;33.88;21.95;;;20.20;99.90;;;;;;5057199;28;20085;-71
2022/08/23 03:55:06;;;;;;;30.80;19.58;;;20.00;99.90;;;;;;5056901;28;20021;-72
2022/08/23 03:57:35;;;;;;;34.92;19.92;;;20.10;99.90;;;;;;5056879;28;20077;-71
2022/08/23 04:00:03;;;;;;;33.90;19.50;;;20.20;99.90;;;;;;5057138;28;20040;-72
2022/08/23 04:02:40;;;;;;;31.67;19.42;;;20.30;99.90;;;;;;5074883;28;20029;-72
2022/08/23 04:05:09;;;;;;;29.83;18.58;;;20.20;99.90;;;;;;5057065;28;20032;-72
2022/08/23 04:07:44;;;;;;;28.33;17.80;;;20.10;99.90;;;;;;5041775;28;20071;-72
2022/08/23 04:10:13;;;;;;;29.63;17.58;;;20.10;99.90;;;;;;5075003;28;20024;-72
2022/08/23 04:12:41;;;;;;;38.38;17.85;;;20.20;99.90;;;;;;5056382;28;20090;-72
2022/08/23 04:15:12;;;;;;;36.33;17.15;;;20.20;99.90;;;;;;5056991;28;20362;-72
2022/08/23 04:17:39;;;;;;;27.77;16.63;;;20.20;99.90;;;;;;5056522;28;20469;-72
2022/08/23 04:20:06;;;;;;;28.70;16.52;;;20.30;99.90;;;;;;5056935;28;20123;-71
2022/08/23 04:22:37;;;;;;;35.38;16.58;;;20.40;99.90;;;;;;5056448;28;20029;-72
2022/08/23 04:25:04;;;;;;;23.90;16.73;;;20.30;99.90;;;;;;5056285;28;20056;-72
2022/08/23 04:27:32;;;;;;;32.22;18.23;;;20.30;99.90;;;;;;5056251;28;20025;-72
2022/08/23 04:29:58;;;;;;;33.00;19.23;;;20.40;99.90;;;;;;5056595;28;20394;-72
2022/08/23 04:32:25;;;;;;;24.77;15.63;;;20.30;99.90;;;;;;5056628;28;20028;-72
2022/08/23 04:34:51;;;;;;;31.20;17.95;;;20.20;99.90;;;;;;5056251;28;20021;-72
2022/08/23 04:37:17;;;;;;;33.85;16.38;;;20.20;99.90;;;;;;5056405;28;20399;-72
2022/08/23 04:42:36;;;;;;;31.70;16.42;;;20.20;99.90;;;;;;5055184;28;20032;-72
2022/08/23 04:45:03;;;;;;;32.22;15.50;;;20.10;99.90;;;;;;5073562;28;20108;-72
2022/08/23 04:47:31;;;;;;;27.63;15.35;;;20.10;99.90;;;;;;5056071;28;20411;-71
2022/08/23 04:50:00;;;;;;;29.88;14.30;;;20.00;99.90;;;;;;5055661;28;20027;-71
2022/08/23 04:52:25;;;;;;;26.67;14.73;;;20.00;99.90;;;;;;5074112;28;20123;-72
2022/08/23 04:54:51;;;;;;;30.92;15.40;;;20.20;99.90;;;;;;5055641;28;20021;-72
2022/08/23 04:57:43;;;;;;;30.85;15.32;;;20.10;99.90;;;;;;5056016;28;20041;-73
2022/08/23 05:00:15;;;;;;;28.35;14.38;;;19.90;99.90;;;;;;5055812;28;20377;-73
2022/08/23 05:02:49;;;;;;;28.98;14.98;;;19.80;99.90;;;;;;5055897;28;20034;-72
2022/08/23 05:05:16;;;;;;;28.05;14.52;;;19.80;99.90;;;;;;5073494;28;20021;-72
2022/08/23 05:07:44;;;;;;;28.45;14.15;;;19.90;99.90;;;;;;5055760;28;20020;-71
2022/08/23 05:10:15;;;;;;;24.40;14.20;;;19.90;99.90;;;;;;5073540;28;20045;-72
2022/08/23 05:12:46;;;;;;;22.60;14.10;;;20.00;99.90;;;;;;5059215;28;20020;-73
2022/08/23 05:15:13;;;;;;;21.35;14.18;;;20.00;99.90;;;;;;5062829;28;20046;-72
2022/08/23 05:17:43;;;;;;;23.02;14.05;;;20.10;99.90;;;;;;5055677;28;20041;-71
2022/08/23 05:20:09;;;;;;;25.20;13.25;;;20.00;99.90;;;;;;5055501;28;20031;-72
2022/08/23 05:22:39;;;;;;;22.27;13.43;;;19.90;99.90;;;;;;5055530;28;20024;-72
2022/08/23 05:25:50;;;;;;;24.75;14.40;;;20.00;99.90;;;;;;5053069;28;20119;-73
2022/08/23 05:28:31;;;;;;;27.90;15.00;;;20.00;99.90;;;;;;5061041;28;20025;-73
2022/08/23 05:31:05;;;;;;;30.55;15.35;;;20.20;99.90;;;;;;5055068;28;20055;-72
2022/08/23 05:33:42;;;;;;;29.33;14.77;;;20.60;99.90;;;;;;5055431;28;20115;-71
2022/08/23 05:36:11;;;;;;;26.17;15.75;;;20.80;99.90;;;;;;5054911;28;20085;-72
2022/08/23 05:38:38;;;;;;;35.70;16.60;;;20.50;99.90;;;;;;5072910;28;20123;-72
2022/08/23 05:41:05;;;;;;;29.48;16.85;;;20.30;99.90;;;;;;5054893;28;20025;-73
2022/08/23 05:43:32;;;;;;;49.38;18.13;;;20.10;99.90;;;;;;5037411;28;20069;-72
2022/08/23 05:46:06;;;;;;;37.53;16.73;;;20.10;99.90;;;;;;5059747;28;20024;-72
2022/08/23 05:48:39;;;;;;;28.58;16.55;;;20.40;99.90;;;;;;5046414;28;20481;-72
2022/08/23 05:51:14;;;;;;;45.17;16.58;;;20.50;99.90;;;;;;5053867;28;20040;-73
2022/08/23 05:53:41;;;;;;;44.53;17.10;;;20.90;99.90;;;;;;5054345;28;20020;-73
2022/08/23 05:56:13;;;;;;;36.33;18.48;;;21.10;99.90;;;;;;5064656;28;20020;-72
2022/08/23 05:58:40;;;;;;;27.83;16.13;;;21.30;99.90;;;;;;5054040;28;20032;-72
2022/08/23 06:01:08;;;;;;;26.27;15.77;;;21.30;99.90;;;;;;5054063;28;20107;-72
2022/08/23 06:03:34;;;;;;;40.20;16.08;;;21.10;99.90;;;;;;5065156;28;20056;-72
2022/08/23 06:06:01;;;;;;;49.13;16.10;;;21.20;99.90;;;;;;5033687;28;20021;-72
2022/08/23 06:08:27;;;;;;;42.58;16.02;;;21.30;99.90;;;;;;5047039;28;20025;-72
2022/08/23 06:11:08;;;;;;;29.13;15.57;;;21.20;99.90;;;;;;5053746;28;20037;-72
2022/08/23 06:13:44;;;;;;;38.05;15.02;;;20.60;99.90;;;;;;5046037;28;20032;-72
2022/08/23 06:16:12;;;;;;;24.88;15.07;;;20.70;99.90;;;;;;5058025;28;20380;-72
2022/08/23 06:18:38;;;;;;;47.67;17.42;;;20.90;99.90;;;;;;5072016;28;20362;-72
2022/08/23 06:21:24;;;;;;;29.52;15.45;;;20.90;99.90;;;;;;5072667;28;20035;-72
2022/08/23 06:23:50;;;;;;;35.10;16.85;;;20.80;99.90;;;;;;5052596;28;20028;-71
2022/08/23 06:26:20;;;;;;;46.80;18.27;;;21.00;99.90;;;;;;5052321;28;20090;-71
2022/08/23 06:28:48;;;;;;;34.30;16.02;;;21.00;99.90;;;;;;5053293;28;20564;-72
2022/08/23 06:31:15;;;;;;;42.42;16.83;;;20.60;99.90;;;;;;5042346;28;20123;-72
2022/08/23 06:33:55;;;;;;;44.17;16.93;;;20.30;99.90;;;;;;5053617;28;20043;-72
2022/08/23 06:36:48;;;;;;;29.50;14.55;;;20.30;99.90;;;;;;5069038;28;20044;-72
2022/08/23 06:39:34;;;;;;;30.27;16.33;;;20.40;99.90;;;;;;5070962;28;20047;-72
2022/08/23 06:42:15;;;;;;;30.52;16.88;;;20.60;99.90;;;;;;5053417;28;20031;-72
2022/08/23 06:44:43;;;;;;;34.75;16.33;;;20.80;99.90;;;;;;5071458;28;20025;-72
2022/08/23 06:47:13;;;;;;;31.45;15.65;;;20.90;99.90;;;;;;5053329;28;20048;-74
2022/08/23 06:49:40;;;;;;;27.35;15.20;;;20.90;99.90;;;;;;5053618;28;20027;-73
2022/08/23 06:52:06;;;;;;;29.98;14.63;;;21.20;99.90;;;;;;5070998;28;20099;-73
2022/08/23 06:54:50;;;;;;;40.58;16.60;;;21.50;99.90;;;;;;5063068;28;20028;-73
2022/08/23 06:57:25;;;;;;;36.67;15.13;;;21.60;99.90;;;;;;5059299;28;20057;-70
2022/08/23 07:00:14;;;;;;;28.50;15.55;;;21.80;99.90;;;;;;5070795;28;20037;-71
2022/08/23 07:03:04;;;;;;;36.38;14.10;;;21.60;99.90;;;;;;5053676;28;20388;-71
2022/08/23 07:05:48;;;;;;;32.35;15.02;;;21.20;99.90;;;;;;5073712;28;20044;-73
2022/08/23 07:08:23;;;;;;;30.77;15.20;;;21.20;99.90;;;;;;5054655;28;20055;-73
2022/08/23 07:10:49;;;;;;;29.38;12.80;;;21.50;99.90;;;;;;5056277;28;20481;-76
2022/08/23 07:13:15;;;;;;;25.10;13.15;;;21.70;99.90;;;;;;5072181;28;20082;-75
2022/08/23 07:15:42;;;;;;;29.23;12.80;;;21.90;99.90;;;;;;5050175;28;20032;-73
2022/08/23 07:18:12;;;;;;;31.05;11.23;;;22.10;99.90;;;;;;5057527;28;20032;-73
2022/08/23 07:20:38;;;;;;;19.95;10.65;;;22.20;99.90;;;;;;5056861;28;20056;-77
2022/08/23 07:23:04;;;;;;;27.48;10.25;;;22.40;99.90;;;;;;5057240;28;20056;-75
2022/08/23 07:25:31;;;;;;;22.90;10.13;;;22.50;99.90;;;;;;5045689;28;20072;-77
2022/08/23 07:28:01;;;;;;;23.27;10.23;;;22.40;99.90;;;;;;5057438;28;20017;-75
2022/08/23 07:30:27;;;;;;;24.27;9.48;;;22.60;99.90;;;;;;5057495;28;20065;-77
2022/08/23 07:32:53;;;;;;;23.42;9.65;;;22.80;99.90;;;;;;5057468;28;20054;-75
2022/08/23 07:35:25;;;;;;;20.25;8.82;;;22.70;99.90;;;;;;5057100;28;20020;-75
2022/08/23 07:37:56;;;;;;;13.02;7.15;;;22.70;99.90;;;;;;5075338;28;20362;-75
2022/08/23 07:40:22;;;;;;;19.05;8.02;;;22.80;99.90;;;;;;5075418;28;20050;-77
2022/08/23 07:42:56;;;;;;;20.45;6.68;;;22.90;99.90;;;;;;5057055;28;20036;-75
2022/08/23 07:45:22;;;;;;;16.13;6.75;;;22.80;99.90;;;;;;5056992;28;20020;-76
2022/08/23 07:47:48;;;;;;;16.92;6.53;;;23.10;99.90;;;;;;5057297;28;20476;-76
2022/08/23 07:50:14;;;;;;;22.02;6.63;;;23.10;99.90;;;;;;5057079;28;20051;-75
2022/08/23 07:52:40;;;;;;;21.55;6.75;;;23.20;99.90;;;;;;5057065;28;20456;-75
2022/08/23 07:55:07;;;;;;;20.85;6.82;;;23.30;99.90;;;;;;5056655;28;20542;-76
2022/08/23 07:57:41;;;;;;;15.38;6.85;;;23.30;99.90;;;;;;5075101;28;20040;-76
2022/08/23 08:00:16;;;;;;;16.90;6.53;;;23.20;99.90;;;;;;5074971;28;20028;-75
2022/08/23 08:02:59;;;;;;;20.83;6.63;;;23.40;99.90;;;;;;5058154;28;20032;-75
2022/08/23 08:05:33;;;;;;;23.00;5.68;;;23.60;99.90;;;;;;5056766;28;20051;-75
2022/08/23 08:07:59;;;;;;;15.18;5.93;;;23.60;99.90;;;;;;5056875;28;20032;-77
2022/08/23 08:10:25;;;;;;;16.48;6.38;;;23.70;99.90;;;;;;5056622;28;20028;-75
2022/08/23 08:12:50;;;;;;;17.15;6.07;;;23.70;99.90;;;;;;5056806;28;20025;-76
2022/08/23 08:15:18;;;;;;;22.10;5.65;;;23.60;99.90;;;;;;5074292;28;20036;-76
2022/08/23 08:17:50;;;;;;;;;;;23.60;99.90;;;;;;5056281;28;20028;-76
2022/08/23 08:20:18;;;;;;;21.77;5.72;;;23.90;99.90;;;;;;5074652;28;19912;-76
2022/08/23 08:23:06;;;;;;;17.08;5.25;;;24.00;99.90;;;;;;5056571;28;20025;-76
2022/08/23 08:25:34;;;;;;;27.95;5.47;;;24.10;99.90;;;;;;5074559;28;20070;-77
2022/08/23 08:28:03;;;;;;;12.30;4.80;;;24.30;99.90;;;;;;5059518;28;20016;-76
2022/08/23 08:30:30;;;;;;;16.77;5.00;;;24.30;99.90;;;;;;5056652;28;20111;-77
2022/08/23 08:32:56;;;;;;;12.57;4.00;;;24.50;99.90;;;;;;5056043;28;20124;-75
2022/08/23 08:35:23;;;;;;;13.40;3.63;;;24.80;99.90;;;;;;5056446;28;20119;-75
2022/08/23 08:37:49;;;;;;;10.32;3.75;;;25.00;99.90;;;;;;5056213;28;20040;-76
2022/08/23 08:40:25;;;;;;;9.55;3.42;;;25.00;99.90;;;;;;5056542;28;20399;-76
2022/08/23 08:43:04;;;;;;;13.40;2.92;;;25.00;99.90;;;;;;5056345;28;20106;-75
2022/08/23 08:45:51;;;;;;;10.75;3.30;;;25.20;99.90;;;;;;5074075;28;20023;-76
2022/08/23 08:48:21;;;;;;;8.93;2.78;;;25.20;99.90;;;;;;5055579;28;20032;-75
2022/08/23 08:51:05;;;;;;;13.27;2.78;;;25.40;99.90;;;;;;5056002;28;20021;-76
2022/08/23 08:53:38;;;;;;;;;;;25.00;99.90;;;;;;5074197;28;20032;-75
2022/08/23 08:56:24;;;;;;;15.73;2.67;;;24.90;99.90;;;;;;5074071;28;20375;-76
2022/08/23 08:59:05;;;;;;;13.38;3.13;;;25.20;99.90;;;;;;5055871;28;20404;-75
2022/08/23 09:01:34;;;;;;;9.50;2.72;;;25.40;99.90;;;;;;5055405;28;20111;-76
2022/08/23 09:04:01;;;;;;;11.95;2.70;;;25.80;99.90;;;;;;5055789;28;20024;-76
2022/08/23 09:06:34;;;;;;;10.73;2.55;;;25.70;99.90;;;;;;5055840;28;20048;-75
2022/08/23 09:09:07;;;;;;;6.97;2.90;;;25.50;99.90;;;;;;5055691;28;20025;-75
2022/08/23 09:12:10;;;;;;;9.93;2.50;;;25.10;99.90;;;;;;5055767;28;20024;-76
2022/08/23 09:14:39;;;;;;;12.18;3.00;;;25.30;99.90;;;;;;5043128;28;20046;-76
2022/08/23 09:17:31;;;;;;;12.93;3.45;;;25.50;99.90;;;;;;5054973;28;20036;-75
2022/08/23 09:20:01;;;;;;;13.35;2.58;;;25.90;99.90;;;;;;5055523;28;20069;-75
2022/08/23 09:22:53;;;;;;;15.02;4.13;;;25.60;99.90;;;;;;5055338;28;20028;-76
2022/08/23 09:25:27;;;;;;;11.85;3.67;;;25.50;99.90;;;;;;5055048;28;20366;-76
2022/08/23 09:28:04;;;;;;;10.20;4.00;;;25.80;99.90;;;;;;5055231;28;20043;-76
2022/08/23 09:30:55;;;;;;;13.40;3.45;;;25.40;99.90;;;;;;5073017;28;20021;-75
2022/08/23 09:33:26;;;;;;;12.98;4.45;;;25.10;99.90;;;;;;5043505;28;20057;-75
2022/08/23 09:36:04;;;;;;;21.48;3.47;;;25.40;99.90;;;;;;5054933;28;20162;-77
2022/08/23 09:38:33;;;;;;;17.73;4.05;;;25.40;99.90;;;;;;5055305;28;20036;-76
2022/08/23 09:41:16;;;;;;;10.02;2.72;;;25.60;99.90;;;;;;5073007;28;20028;-74
2022/08/23 09:43:49;;;;;;;9.38;3.13;;;25.50;99.90;;;;;;5038863;28;20024;-75
2022/08/23 09:46:31;;;;;;;13.82;3.10;;;25.90;99.90;;;;;;5054248;28;20025;-75
2022/08/23 09:49:00;;;;;;;13.45;4.03;;;26.50;99.90;;;;;;5055259;28;20077;-76
2022/08/23 09:51:35;;;;;;;15.65;3.60;;;26.90;99.90;;;;;;5072816;28;20100;-75
2022/08/23 09:54:06;;;;;;;;;;;26.80;99.90;;;;;;5055210;28;20107;-75
2022/08/23 09:56:41;;;;;;;7.82;3.10;;;26.80;99.90;;;;;;5054264;28;19908;-74
2022/08/23 09:59:19;;;;;;;13.02;3.35;;;27.10;99.90;;;;;;5054778;28;20490;-75
2022/08/23 10:01:47;;;;;;;11.90;3.78;;;27.00;99.90;;;;;;5054923;28;20127;-75
2022/08/23 10:04:27;;;;;;;18.60;3.85;;;27.30;99.90;;;;;;5072858;28;20077;-75
2022/08/23 10:06:54;;;;;;;10.48;3.50;;;27.50;99.90;;;;;;5054388;28;20552;-75
2022/08/23 10:09:28;;;;;;;7.85;3.10;;;27.10;99.90;;;;;;5054605;28;20020;-75
2022/08/23 10:11:56;;;;;;;12.20;3.42;;;26.20;99.90;;;;;;5054884;28;20384;-74
2022/08/23 10:14:23;;;;;;;9.40;3.35;;;26.40;99.90;;;;;;5054480;28;20541;-75
2022/08/23 10:17:06;;;;;;;49.90;7.05;;;26.30;99.90;;;;;;5054523;28;20025;-75
2022/08/23 10:19:48;;;;;;;32.85;7.53;;;26.50;99.90;;;;;;5051926;28;20039;-75
2022/08/23 10:22:25;;;;;;;14.95;4.28;;;26.60;99.90;;;;;;5054423;28;20028;-77
2022/08/23 10:25:29;;;;;;;13.27;4.40;;;26.70;99.90;;;;;;5054314;28;20024;-76
2022/08/23 10:31:19;;;;;;;15.10;3.78;;;27.00;99.90;;;;;;5054497;28;20489;-74
2022/08/23 10:34:02;;;;;;;10.70;3.22;;;27.20;99.90;;;;;;5054672;28;20426;-74
2022/08/23 10:36:37;;;;;;;10.57;2.67;;;27.30;99.90;;;;;;5054168;28;20037;-74
2022/08/23 10:39:22;;;;;;;7.22;2.10;;;27.50;99.90;;;;;;5072849;28;20032;-73
2022/08/23 10:42:01;;;;;;;8.63;2.70;;;27.20;99.90;;;;;;5058570;28;20082;-73
2022/08/23 10:44:41;;;;;;;6.57;2.28;;;26.80;99.90;;;;;;5076254;28;20610;-73
2022/08/23 10:47:22;;;;;;;9.57;2.60;;;27.00;99.90;;;;;;5058261;28;20093;-74
2022/08/23 10:49:51;;;;;;;10.20;1.67;;;27.30;99.90;;;;;;5058490;28;20182;-75
2022/08/23 10:52:35;;;;;;;7.07;2.15;;;27.30;99.90;;;;;;5058253;28;20085;-75
2022/08/23 10:55:16;;;;;;;5.53;1.77;;;27.30;99.90;;;;;;5075922;28;20047;-73
2022/08/23 10:57:46;;;;;;;2.57;1.57;;;27.60;99.90;;;;;;5057781;28;20124;-73
2022/08/23 11:00:20;;;;;;;5.82;1.95;;;27.10;99.90;;;;;;5058017;28;20103;-74
2022/08/23 11:03:10;;;;;;;4.53;1.67;;;27.10;99.90;;;;;;5058189;28;20036;-74
2022/08/23 11:05:37;;;;;;;10.93;1.83;;;27.30;99.90;;;;;;5048750;28;20514;-74
2022/08/23 11:08:44;;;;;;;7.43;1.88;;;27.60;99.90;;;;;;5075659;28;20050;-74
2022/08/23 11:11:41;;;;;;;3.70;1.73;;;27.40;99.90;;;;;;5057772;28;20419;-73
2022/08/23 11:14:25;;;;;;;5.50;2.00;;;27.00;99.90;;;;;;5057737;28;20036;-74
2022/08/23 11:16:58;;;;;;;8.70;1.35;;;27.00;99.90;;;;;;5057604;28;20488;-75
2022/08/23 11:19:48;;;;;;;24.45;3.60;;;27.30;99.90;;;;;;5057746;28;20431;-75
2022/08/23 11:22:16;;;;;;;6.45;1.48;;;27.90;99.90;;;;;;5057287;28;20035;-74
2022/08/23 11:25:25;;;;;;;2.28;0.80;;;27.40;99.90;;;;;;5057866;28;20027;-73
2022/08/23 11:28:26;;;;;;;2.63;0.85;;;27.70;99.90;;;;;;5050287;28;20028;-72
2022/08/23 11:30:56;;;;;;;2.22;1.10;;;27.70;99.90;;;;;;5053985;28;20031;-73
2022/08/23 11:33:38;;;;;;;2.75;1.00;;;28.00;99.90;;;;;;5056613;28;20211;-72
2022/08/23 11:36:07;;;;;;;5.90;1.20;;;27.70;99.90;;;;;;5056460;28;20166;-72
2022/08/23 11:38:45;;;;;;;1.90;0.82;;;28.10;99.90;;;;;;5056287;28;20118;-73
2022/08/23 11:41:27;;;;;;;4.43;1.05;;;28.20;99.60;;;;;;5054174;28;20024;-72
2022/08/23 11:44:02;;;;;;;1.52;1.00;;;28.50;99.20;;;;;;5071467;28;20472;-73
2022/08/23 11:46:48;;;;;;;1.52;0.60;;;28.10;99.90;;;;;;5071954;28;20097;-72
2022/08/23 11:49:36;;;;;;;1.83;0.70;;;28.40;99.50;;;;;;5062777;28;20507;-74
2022/08/23 11:52:23;;;;;;;1.58;0.75;;;28.60;99.00;;;;;;5069325;28;20063;-74
2022/08/23 11:57:46;;;;;;;2.45;0.73;;;28.30;99.20;;;;;;5053773;28;20053;-75
2022/08/23 12:00:15;;;;;;;3.80;0.82;;;29.10;98.30;;;;;;5057789;28;20028;-77
2022/08/23 12:02:51;;;;;;;3.58;0.98;;;28.40;98.90;;;;;;5053740;28;20060;-74
2022/08/23 12:05:55;;;;;;;7.82;1.00;;;28.10;99.20;;;;;;5048982;28;20590;-77
2022/08/23 12:08:54;;;;;;;1.50;0.68;;;28.30;99.70;;;;;;5012374;28;20034;-74
2022/08/23 12:11:21;;;;;;;2.45;0.80;;;28.60;98.80;;;;;;4996700;28;20531;-76
2022/08/23 12:13:52;;;;;;;3.25;0.73;;;28.90;98.50;;;;;;5053478;28;20022;-77
2022/08/23 12:16:18;;;;;;;;;;;29.30;98.30;;;;;;5052721;28;20025;-73
2022/08/23 12:18:53;;;;;;;1.58;1.08;;;29.00;98.30;;;;;;5053554;28;20383;-75
2022/08/23 12:21:44;;;;;;;2.80;1.10;;;28.70;98.20;;;;;;5053204;28;20028;-73
2022/08/23 12:24:28;;;;;;;2.88;0.90;;;28.70;98.10;;;;;;5065799;28;20174;-76
2022/08/23 12:27:20;;;;;;;2.83;0.80;;;29.70;97.50;;;;;;5058093;28;20493;-76
2022/08/23 12:30:19;;;;;;;1.17;0.63;;;30.00;96.70;;;;;;5079437;28;20033;-74
2022/08/23 12:33:09;;;;;;;1.70;0.80;;;30.40;96.10;;;;;;5050082;28;20409;-75
2022/08/23 12:35:57;;;;;;;7.40;0.93;;;29.40;96.60;;;;;;5051350;28;20465;-81
2022/08/23 12:38:52;;;;;;;1.27;0.90;;;30.30;96.50;;;;;;5045940;28;20103;-73
2022/08/23 12:41:27;;;;;;;1.05;0.60;;;30.60;95.30;;;;;;5052240;28;20492;-73
2022/08/23 12:43:57;;;;;;;2.13;0.90;;;31.40;95.20;;;;;;5052946;28;20044;-73
2022/08/23 12:46:36;;;;;;;2.55;0.90;;;30.80;94.90;;;;;;5052956;28;20053;-73
2022/08/23 12:49:04;;;;;;;4.88;1.05;;;30.10;96.50;;;;;;5053153;28;20025;-74
2022/08/23 12:51:31;;;;;;;5.57;1.15;;;30.10;96.80;;;;;;5052660;28;20028;-72
2022/08/23 12:54:12;;;;;;;1.75;1.00;;;29.60;97.60;;;;;;5052265;28;20036;-74
2022/08/23 12:56:38;;;;;;;2.83;0.77;;;30.40;97.00;;;;;;5067969;28;20049;-73
2022/08/23 12:59:06;;;;;;;4.30;0.90;;;31.90;95.40;;;;;;5051443;28;20036;-73
2022/08/23 13:01:37;;;;;;;4.03;0.90;;;32.20;94.00;;;;;;5067651;28;20025;-73
2022/08/23 13:04:14;;;;;;;4.47;1.10;;;31.20;94.70;;;;;;5052364;28;20035;-72
2022/08/23 13:06:47;;;;;;;2.72;1.05;;;31.90;93.70;;;;;;5052864;28;20470;-74
2022/08/23 13:09:13;;;;;;;2.38;1.00;;;32.00;93.90;;;;;;5052447;28;20024;-74
2022/08/23 13:11:41;;;;;;;2.65;0.75;;;31.30;94.50;;;;;;5052783;28;20566;-73
2022/08/23 13:14:25;;;;;;;4.63;0.80;;;30.70;94.80;;;;;;5051257;28;20071;-73
2022/08/23 13:16:51;;;;;;;2.35;0.77;;;31.80;93.90;;;;;;5052405;28;20063;-73
2022/08/23 13:19:25;;;;;;;7.85;0.98;;;32.20;93.40;;;;;;5052240;28;20079;-74